Impacts METAR Board INFO
IDs:

KEAU - Eau Claire/Chippewa, WI, US

Updated at: 0213 UTC 14 Dec 2017
Potential Impact None Slight Moderate High
Time13/14Z 13/15Z 13/16Z 13/17Z 13/18Z 13/19Z 13/20Z 13/21Z 13/22Z 13/23Z 14/00Z 14/01Z 14/02Z
VIS10 10 0.25 9 10 10 7 8 10 10 10 10 10
CIG-- 23 11 30 15 16 19 20 25 35 45 -- --
CoverFEWOVCOVXOVCOVCOVCOVCOVCOVCBKNOVCCLRCLR
FltCatVFRMVFRLIFRMVFRMVFRMVFRMVFRMVFRMVFRVFRVFRVFRVFR
WX----SN FZFG--------------------
WDir1002030103501010340360350330340340
WSpd9 7 5 5 9 11 9 10 13 7 6 6 4
WGst-- -- -- -- -- -- -- -- 22 -- -- -- --
Raw hourly METARs
KEAU 131356Z 10009KT 10SM FEW080 FEW110 M06/M09 A2935 RMK AO2 SLP953 T10611094
KEAU 131456Z 02007KT 10SM OVC023 M06/M09 A2939 RMK AO2 SLP968 T10561094 53001
KEAU 131556Z 03005KT 1/4SM SN FZFG VV011 M07/M08 A2942 RMK AO2 SNB21 SLP977 P0001 T10671078
KEAU 131656Z 01005KT 9SM SCT013 BKN030 OVC048 M06/M08 A2945 RMK AO2 SNE48 SLP987 P0001 T10611083
KEAU 131756Z 35009KT 10SM BKN015 OVC021 M06/M09 A2947 RMK AO2 SLP992 60002 T10561089 11056 21067 51024
KEAU 131856Z 01011KT 10SM OVC016 M06/M09 A2950 RMK AO2 SLP002 T10611094
KEAU 131956Z 01009KT 7SM BKN019 OVC047 M06/M10 A2953 RMK AO2 SLP015 T10611100
KEAU 132056Z 34010KT 8SM BKN020 BKN028 OVC048 M06/M10 A2959 RMK AO2 SLP032 T10611100 51029
KEAU 132156Z 36013G22KT 10SM BKN025 OVC055 M06/M11 A2965 RMK AO2 SLP053 T10611106
KEAU 132256Z 35007KT 10SM SCT021 BKN035 M07/M11 A2971 RMK AO2 SLP075 T10721111
KEAU 132356Z 33006KT 10SM OVC045 M07/M11 A2976 RMK AO2 SLP093 T10721111 11056 21078 51037
KEAU 140056Z 34006KT 10SM CLR M09/M12 A2981 RMK AO2 SLP110 T10891117
KEAU 140156Z 34004KT 10SM CLR M09/M12 A2986 RMK AO2 SLP127 T10941122